Turquoise — V7KG7 — position and weather

sailwx.info

Track history (hours):
 
Tides and Currents Weather Stations Pressure Air Temp Water Temp Dewpoint Dewpoint Depression Visibility Wind Speed Wind Dir Waves Ship Positions

Turquoise

Last reported at 2017-Sep-24 17:42 UTC. Time now 2017-Sep-25 19:09 UTC.
Position N 11°07' W 074°54'.

Length 183 m; draft 7.5 m.

Type: Tanker. MMSI: 538006160.

Date/timePositionNaut miles runAvg speedWind from/ knotsBaromVisibWave heightAir tempDewpointWater temp
2017-Sep-24 17:42N 11°07' W 074°54'1 5.4
2017-Sep-24 17:30N 11°06' W 074°54'5 1.0
2017-Sep-24 12:40N 11°05' W 074°59'15 9.3
2017-Sep-24 11:05N 10°58' W 074°45'  
2017-Sep-21 13:40N 10°57' W 074°46'0 0.0
2017-Sep-21 13:28N 10°57' W 074°46'0 0.0
2017-Sep-21 12:57N 10°57' W 074°46'0 0.0
2017-Sep-21 12:29N 10°57' W 074°46'0 0.0
2017-Sep-21 12:00N 10°57' W 074°46'0 0.0
2017-Sep-21 11:30N 10°57' W 074°46'0 0.0
2017-Sep-21 11:00N 10°57' W 074°46'0 0.0
2017-Sep-21 10:12N 10°57' W 074°46'0 0.0
2017-Sep-21 09:58N 10°57' W 074°46'0 0.0
2017-Sep-21 09:26N 10°57' W 074°46'0 0.0
2017-Sep-21 07:29N 10°57' W 074°46'0 0.0
2017-Sep-21 06:58N 10°57' W 074°46'0 0.0
2017-Sep-21 06:28N 10°57' W 074°46'0 0.0
2017-Sep-21 05:59N 10°57' W 074°46'0 0.0
2017-Sep-21 05:30N 10°57' W 074°46'0 0.0
2017-Sep-21 04:48N 10°57' W 074°46'0 0.0
2017-Sep-21 04:18N 10°57' W 074°46'0 0.0
2017-Sep-21 04:00N 10°57' W 074°46'0 0.0
2017-Sep-21 03:28N 10°57' W 074°46'2 0.6
2017-Sep-20 23:36N 10°59' W 074°46'3 8.4
2017-Sep-20 23:16N 11°02' W 074°48'2 8.3
2017-Sep-20 23:00N 11°03' W 074°49'4 8.1
2017-Sep-20 22:30N 11°06' W 074°51'3 5.5
2017-Sep-20 22:00N 11°07' W 074°54'  
Track history (hours):
 
Tides and Currents Weather Stations Pressure Air Temp Water Temp Dewpoint Dewpoint Depression Visibility Wind Speed Wind Dir Waves Ship Positions

Turquoise

Last reported at 2017-Sep-24 17:42 UTC. Time now 2017-Sep-25 19:09 UTC.
Position N 11°07' W 074°54'.

Length 183 m; draft 7.5 m.

Type: Tanker. MMSI: 538006160.

Date/timePositionNaut miles runAvg speedWind from/ knotsBaromVisibWave heightAir tempDewpointWater temp
2017-Sep-24 17:42N 11°07' W 074°54'1 5.4
2017-Sep-24 17:30N 11°06' W 074°54'5 1.0
2017-Sep-24 12:40N 11°05' W 074°59'15 9.3
2017-Sep-24 11:05N 10°58' W 074°45'  
2017-Sep-21 13:40N 10°57' W 074°46'0 0.0
2017-Sep-21 13:28N 10°57' W 074°46'0 0.0
2017-Sep-21 12:57N 10°57' W 074°46'0 0.0
2017-Sep-21 12:29N 10°57' W 074°46'0 0.0
2017-Sep-21 12:00N 10°57' W 074°46'0 0.0
2017-Sep-21 11:30N 10°57' W 074°46'0 0.0
2017-Sep-21 11:00N 10°57' W 074°46'0 0.0
2017-Sep-21 10:12N 10°57' W 074°46'0 0.0
2017-Sep-21 09:58N 10°57' W 074°46'0 0.0
2017-Sep-21 09:26N 10°57' W 074°46'0 0.0
2017-Sep-21 07:29N 10°57' W 074°46'0 0.0
2017-Sep-21 06:58N 10°57' W 074°46'0 0.0
2017-Sep-21 06:28N 10°57' W 074°46'0 0.0
2017-Sep-21 05:59N 10°57' W 074°46'0 0.0
2017-Sep-21 05:30N 10°57' W 074°46'0 0.0
2017-Sep-21 04:48N 10°57' W 074°46'0 0.0
2017-Sep-21 04:18N 10°57' W 074°46'0 0.0
2017-Sep-21 04:00N 10°57' W 074°46'0 0.0
2017-Sep-21 03:28N 10°57' W 074°46'2 0.6
2017-Sep-20 23:36N 10°59' W 074°46'3 8.4
2017-Sep-20 23:16N 11°02' W 074°48'2 8.3
2017-Sep-20 23:00N 11°03' W 074°49'4 8.1
2017-Sep-20 22:30N 11°06' W 074°51'3 5.5
2017-Sep-20 22:00N 11°07' W 074°54'  

Dump ship's entire track history